createdAt,value
2019-02-17T00:00:38.557Z,32.47
2019-02-17T00:03:07.674Z,31.17
2019-02-17T00:05:36.469Z,30.60
2019-02-17T00:08:06.610Z,32.93
2019-02-17T00:10:35.744Z,35.73
2019-02-17T00:13:04.746Z,34.37
2019-02-17T00:15:33.698Z,32.33
2019-02-17T00:18:04.729Z,35.80
2019-02-17T00:20:33.632Z,31.40
2019-02-17T00:23:02.538Z,30.33
2019-02-17T00:25:31.318Z,34.63
2019-02-17T00:28:01.657Z,32.47
2019-02-17T00:30:30.738Z,36.50
2019-02-17T00:33:00.836Z,34.30
2019-02-17T00:35:31.103Z,33.97
2019-02-17T00:37:59.956Z,31.67
2019-02-17T00:40:29.778Z,36.43
2019-02-17T00:42:59.215Z,36.23
2019-02-17T00:45:28.262Z,32.07
2019-02-17T00:47:57.525Z,32.70
2019-02-17T00:50:26.558Z,32.57
2019-02-17T00:52:55.410Z,32.00
2019-02-17T00:55:24.419Z,32.67
2019-02-17T00:57:53.208Z,32.67
2019-02-17T01:00:22.108Z,33.70
2019-02-17T01:02:51.086Z,29.60
2019-02-17T01:05:19.997Z,32.23
2019-02-17T01:07:48.883Z,30.47
2019-02-17T01:10:18.252Z,35.40
2019-02-17T01:12:47.145Z,33.63
2019-02-17T01:15:15.983Z,38.13
2019-02-17T01:17:44.802Z,32.57
2019-02-17T01:20:13.786Z,36.50
2019-02-17T01:22:43.041Z,32.73
2019-02-17T01:25:11.973Z,30.00
2019-02-17T01:27:40.928Z,32.83
2019-02-17T01:30:11.409Z,34.47
2019-02-17T01:32:40.267Z,31.77
2019-02-17T01:35:09.095Z,31.67
2019-02-17T01:37:38.062Z,33.70
2019-02-17T01:40:07.200Z,37.63
2019-02-17T01:42:36.286Z,28.87
2019-02-17T01:45:05.599Z,37.20
2019-02-17T01:47:34.369Z,32.00
2019-02-17T01:50:03.348Z,31.47
2019-02-17T01:52:32.456Z,30.70
2019-02-17T01:55:01.272Z,33.03
2019-02-17T01:57:30.117Z,34.53
2019-02-17T01:59:59.011Z,36.47
2019-02-17T02:02:27.787Z,35.83
2019-02-17T02:04:56.743Z,34.63
2019-02-17T02:07:25.688Z,35.37
2019-02-17T02:09:54.783Z,35.53
2019-02-17T02:12:23.737Z,36.13
2019-02-17T02:14:52.791Z,37.80
2019-02-17T02:17:22.255Z,34.97
2019-02-17T02:19:51.105Z,34.90
2019-02-17T02:22:20.094Z,30.97
2019-02-17T02:24:50.677Z,30.13
2019-02-17T02:27:19.820Z,31.47
2019-02-17T02:30:06.472Z,35.10
2019-02-17T02:32:35.253Z,36.70
2019-02-17T02:35:04.268Z,36.80
2019-02-17T02:37:33.285Z,33.60
2019-02-17T02:40:02.570Z,36.67
2019-02-17T02:42:31.556Z,29.97
2019-02-17T02:45:00.527Z,33.60
2019-02-17T02:47:29.396Z,28.93
2019-02-17T02:49:58.167Z,32.83
2019-02-17T02:52:27.026Z,32.37
2019-02-17T02:54:55.949Z,34.57
2019-02-17T02:57:24.907Z,35.07
2019-02-17T02:59:53.716Z,31.30
2019-02-17T03:02:22.851Z,30.57
2019-02-17T03:04:51.639Z,31.43
2019-02-17T03:07:21.910Z,29.40
2019-02-17T03:09:51.360Z,29.77
2019-02-17T03:12:20.195Z,30.07
2019-02-17T03:14:49.654Z,28.67
2019-02-17T03:17:18.455Z,28.40
2019-02-17T03:19:47.274Z,30.80
2019-02-17T03:22:16.237Z,31.43
2019-02-17T03:24:45.131Z,30.30
2019-02-17T03:27:13.955Z,35.30
2019-02-17T03:29:42.949Z,26.80
2019-02-17T03:32:11.819Z,28.83
2019-02-17T03:34:40.966Z,28.73
2019-02-17T03:37:09.812Z,30.17
2019-02-17T03:39:38.618Z,27.47
2019-02-17T03:42:07.424Z,27.27
2019-02-17T03:44:36.482Z,28.43
2019-02-17T03:47:05.336Z,27.03
2019-02-17T03:49:34.193Z,28.70
2019-02-17T03:52:02.986Z,28.27
2019-02-17T03:54:31.915Z,27.10
2019-02-17T03:57:00.927Z,26.07
2019-02-17T03:59:29.857Z,29.13
2019-02-17T04:01:58.668Z,25.97
2019-02-17T04:04:27.719Z,27.97
2019-02-17T04:06:56.514Z,25.83
2019-02-17T04:09:25.339Z,27.27
2019-02-17T04:11:54.137Z,26.73
2019-02-17T04:14:23.046Z,26.80
2019-02-17T04:16:52.956Z,25.33
2019-02-17T04:19:21.908Z,25.87
2019-02-17T04:21:51.182Z,25.72
2019-02-17T04:24:20.025Z,24.83
2019-02-17T04:26:49.405Z,31.53
2019-02-17T04:29:18.246Z,29.83
2019-02-17T04:31:47.132Z,25.50
2019-02-17T04:34:16.198Z,23.87
2019-02-17T04:36:45.021Z,28.63
2019-02-17T04:39:13.928Z,29.93
2019-02-17T04:41:42.724Z,27.60
2019-02-17T04:44:11.787Z,28.50
2019-02-17T04:46:50.564Z,22.00
2019-02-17T04:49:19.614Z,26.43
2019-02-17T04:51:48.728Z,24.03
2019-02-17T04:54:17.564Z,25.70
2019-02-17T04:56:47.173Z,26.30
2019-02-17T04:59:16.423Z,29.77
2019-02-17T05:01:45.316Z,23.97
2019-02-17T05:04:14.961Z,30.17
2019-02-17T05:06:43.845Z,25.40
2019-02-17T05:09:12.660Z,24.73
2019-02-17T05:11:41.842Z,24.07
2019-02-17T05:14:10.954Z,23.67
2019-02-17T05:16:39.947Z,26.00
2019-02-17T05:19:08.896Z,24.07
2019-02-17T05:21:37.789Z,24.07
2019-02-17T05:24:06.805Z,24.73
2019-02-17T05:26:36.024Z,24.57
2019-02-17T05:29:05.221Z,23.13
2019-02-17T05:31:34.242Z,25.83
2019-02-17T05:34:03.401Z,27.70
2019-02-17T05:36:32.376Z,27.20
2019-02-17T05:39:01.630Z,26.27
2019-02-17T05:41:30.391Z,25.07
2019-02-17T05:43:59.826Z,22.00
2019-02-17T05:46:28.645Z,27.50
2019-02-17T05:48:57.650Z,23.57
2019-02-17T05:51:26.590Z,23.20
2019-02-17T05:53:55.402Z,28.40
2019-02-17T05:56:24.446Z,24.63
2019-02-17T05:58:53.423Z,20.97
2019-02-17T06:01:22.285Z,25.77
2019-02-17T06:03:51.884Z,21.40
2019-02-17T06:06:20.840Z,21.07
2019-02-17T06:08:49.699Z,20.00
2019-02-17T06:11:18.981Z,21.47
2019-02-17T06:13:47.915Z,22.67
2019-02-17T06:16:17.619Z,23.27
2019-02-17T06:18:46.413Z,22.97
2019-02-17T06:21:15.323Z,20.80
2019-02-17T06:23:44.127Z,21.97
2019-02-17T06:26:13.065Z,19.57
2019-02-17T06:28:42.007Z,22.03
2019-02-17T06:31:14.469Z,22.80
2019-02-17T06:33:41.882Z,20.00
2019-02-17T06:36:10.732Z,21.03
2019-02-17T06:38:40.239Z,22.03
2019-02-17T06:41:09.189Z,21.93
2019-02-17T06:43:38.232Z,21.40
2019-02-17T06:46:07.771Z,22.90
2019-02-17T06:48:36.573Z,21.47
2019-02-17T06:51:05.500Z,19.50
2019-02-17T06:53:34.397Z,22.23
2019-02-17T06:56:23.958Z,20.77
2019-02-17T06:58:52.894Z,20.93
2019-02-17T07:01:24.618Z,24.83
2019-02-17T07:03:53.016Z,20.97
2019-02-17T07:06:30.982Z,20.37
2019-02-17T07:08:59.962Z,19.80
2019-02-17T07:11:29.049Z,23.20
2019-02-17T07:13:58.606Z,22.15
2019-02-17T07:16:27.501Z,22.53
2019-02-17T07:18:56.403Z,23.10
2019-02-17T07:21:25.279Z,26.00
2019-02-17T07:23:54.365Z,21.70
2019-02-17T07:26:23.487Z,21.97
2019-02-17T07:28:52.519Z,22.87
2019-02-17T07:31:22.635Z,23.97
2019-02-17T07:33:52.106Z,20.27
2019-02-17T07:36:22.110Z,22.37
2019-02-17T07:38:51.301Z,22.07
2019-02-17T07:41:20.252Z,24.27
2019-02-17T07:43:49.250Z,24.93
2019-02-17T07:46:18.145Z,24.10
2019-02-17T07:48:47.080Z,22.23
2019-02-17T07:51:15.963Z,25.13
2019-02-17T07:53:45.127Z,24.77
2019-02-17T07:56:14.036Z,24.60
2019-02-17T07:58:42.946Z,24.23
2019-02-17T08:01:11.826Z,22.10
2019-02-17T08:03:40.711Z,23.87
2019-02-17T08:06:10.978Z,24.70
2019-02-17T08:08:40.041Z,23.37
2019-02-17T08:11:08.913Z,25.13
2019-02-17T08:13:37.809Z,23.47
2019-02-17T08:16:06.954Z,25.80
2019-02-17T08:18:35.907Z,26.10
2019-02-17T08:21:04.891Z,25.40
2019-02-17T08:23:33.719Z,20.67
2019-02-17T08:26:02.562Z,25.57
2019-02-17T08:28:31.451Z,21.93
2019-02-17T08:31:00.301Z,22.83
2019-02-17T08:33:29.263Z,23.07
2019-02-17T08:35:58.144Z,22.83
2019-02-17T08:38:26.962Z,23.10
2019-02-17T08:40:56.070Z,26.87
2019-02-17T08:43:24.980Z,20.30
2019-02-17T08:45:53.895Z,21.60
2019-02-17T08:48:22.805Z,23.90
2019-02-17T08:50:51.862Z,21.73
2019-02-17T08:53:20.785Z,25.67
2019-02-17T08:55:50.166Z,21.87
2019-02-17T08:58:19.124Z,20.67
2019-02-17T09:00:48.020Z,23.37
2019-02-17T09:03:16.989Z,21.20
2019-02-17T09:05:47.184Z,21.60
2019-02-17T09:08:16.091Z,24.20
2019-02-17T09:10:45.226Z,22.27
2019-02-17T09:13:14.117Z,21.47
2019-02-17T09:15:43.019Z,23.93
2019-02-17T09:18:13.562Z,19.23
2019-02-17T09:20:42.420Z,21.00
2019-02-17T09:23:11.360Z,20.53
2019-02-17T09:25:40.351Z,22.03
2019-02-17T09:28:09.505Z,21.63
2019-02-17T09:30:38.675Z,21.30
2019-02-17T09:33:07.535Z,23.10
2019-02-17T09:35:36.380Z,23.90
2019-02-17T09:38:05.262Z,22.77
2019-02-17T09:40:34.283Z,23.97
2019-02-17T09:43:03.119Z,19.93
2019-02-17T09:45:31.946Z,21.77
2019-02-17T09:48:00.787Z,22.80
2019-02-17T09:50:29.976Z,21.77
2019-02-17T09:52:58.974Z,21.97
2019-02-17T09:55:28.436Z,19.77
2019-02-17T09:57:57.652Z,20.93
2019-02-17T10:00:26.537Z,22.03
2019-02-17T10:02:55.512Z,20.30
2019-02-17T10:05:24.372Z,24.47
2019-02-17T10:07:53.454Z,22.30
2019-02-17T10:10:22.297Z,21.47
2019-02-17T10:12:51.250Z,22.87
2019-02-17T10:15:20.378Z,23.53
2019-02-17T10:17:49.614Z,22.40
2019-02-17T10:20:18.671Z,23.47
2019-02-17T10:22:47.684Z,22.33
2019-02-17T10:25:16.866Z,23.37
2019-02-17T10:27:45.815Z,25.37
2019-02-17T10:30:14.641Z,14.40
2019-02-17T10:32:43.757Z,17.83
2019-02-17T10:35:14.179Z,20.87
2019-02-17T10:37:43.167Z,16.63
2019-02-17T10:40:12.540Z,19.40
2019-02-17T10:42:44.440Z,23.40
2019-02-17T10:45:13.454Z,22.20
2019-02-17T10:47:42.444Z,22.87
2019-02-17T10:50:11.746Z,22.43
2019-02-17T10:52:41.680Z,24.93
2019-02-17T10:55:16.853Z,24.87
2019-02-17T10:57:45.886Z,23.30
2019-02-17T11:00:15.458Z,23.07
2019-02-17T11:02:47.132Z,23.40
2019-02-17T11:05:15.466Z,25.83
2019-02-17T11:07:48.151Z,22.83
2019-02-17T11:10:17.874Z,23.37
2019-02-17T11:12:49.031Z,26.00
2019-02-17T11:15:18.328Z,23.93
2019-02-17T11:17:49.297Z,24.53
2019-02-17T11:20:18.982Z,23.43
2019-02-17T11:22:52.332Z,23.73
2019-02-17T11:25:23.538Z,22.13
2019-02-17T11:27:54.378Z,24.27
2019-02-17T11:30:23.373Z,25.47
2019-02-17T11:32:58.002Z,25.37
2019-02-17T11:35:24.842Z,25.43
2019-02-17T11:37:54.315Z,26.10
2019-02-17T11:40:23.627Z,26.20
2019-02-17T11:42:54.356Z,23.07
2019-02-17T11:45:24.864Z,25.10
2019-02-17T11:47:55.723Z,25.50
2019-02-17T11:50:25.646Z,24.30
2019-02-17T11:52:55.796Z,24.20
2019-02-17T11:55:25.705Z,24.50
2019-02-17T11:57:55.621Z,24.67
2019-02-17T12:00:24.946Z,22.40
2019-02-17T12:02:55.634Z,25.27
2019-02-17T12:05:25.351Z,26.93
2019-02-17T12:07:54.573Z,23.90
2019-02-17T12:10:24.815Z,22.40
2019-02-17T12:12:54.031Z,25.77
2019-02-17T12:15:23.307Z,23.67
2019-02-17T12:17:55.074Z,27.03
2019-02-17T12:20:39.592Z,22.03
2019-02-17T12:23:22.273Z,23.77
2019-02-17T12:25:55.974Z,24.40
2019-02-17T12:28:35.203Z,26.47
2019-02-17T12:31:07.401Z,23.30
2019-02-17T12:33:36.632Z,24.93
2019-02-17T12:36:06.866Z,24.70
2019-02-17T12:38:35.859Z,25.13
2019-02-17T12:41:06.051Z,26.73
2019-02-17T12:43:35.336Z,24.93
2019-02-17T12:46:04.875Z,22.77
2019-02-17T12:48:33.935Z,23.20
2019-02-17T12:51:03.024Z,24.77
2019-02-17T12:53:32.268Z,23.73
2019-02-17T12:56:01.487Z,22.93
2019-02-17T12:58:30.732Z,24.87
2019-02-17T13:00:59.656Z,25.10
2019-02-17T13:03:28.996Z,23.37
2019-02-17T13:05:58.489Z,26.40
2019-02-17T13:08:27.562Z,24.07
2019-02-17T13:10:56.661Z,26.80
2019-02-17T13:13:25.691Z,23.20
2019-02-17T13:15:55.577Z,24.67
2019-02-17T13:18:24.464Z,25.90
2019-02-17T13:20:53.587Z,20.50
2019-02-17T13:23:22.541Z,21.43
2019-02-17T13:25:51.414Z,25.33
2019-02-17T13:28:20.786Z,24.80
2019-02-17T13:30:49.833Z,31.93
2019-02-17T13:33:39.409Z,25.10
2019-02-17T13:36:08.611Z,23.30
2019-02-17T13:38:37.596Z,29.47
2019-02-17T13:41:06.442Z,22.80
2019-02-17T13:43:35.313Z,25.03
2019-02-17T13:46:04.828Z,22.80
2019-02-17T13:48:34.144Z,25.03
2019-02-17T13:51:03.204Z,22.77
2019-02-17T13:53:36.156Z,24.50
2019-02-17T13:56:05.037Z,21.43
2019-02-17T13:58:34.223Z,21.87
2019-02-17T14:01:03.195Z,18.43
2019-02-17T14:03:32.182Z,16.27
2019-02-17T14:06:01.304Z,20.50
2019-02-17T14:08:31.333Z,21.57
2019-02-17T14:11:00.453Z,19.23
2019-02-17T14:13:29.405Z,20.57
2019-02-17T14:15:58.433Z,21.40
2019-02-17T14:18:27.555Z,23.73
2019-02-17T14:20:56.683Z,20.57
2019-02-17T14:23:25.535Z,22.97
2019-02-17T14:25:54.536Z,19.83
2019-02-17T14:28:23.369Z,22.30
2019-02-17T14:30:52.327Z,20.97
2019-02-17T14:33:22.536Z,23.93
2019-02-17T14:35:51.788Z,23.07
2019-02-17T14:38:20.617Z,23.33
2019-02-17T14:40:49.749Z,20.47
2019-02-17T14:43:18.653Z,20.47
2019-02-17T14:45:47.537Z,20.60
2019-02-17T14:48:16.400Z,21.43
2019-02-17T14:50:45.284Z,23.73
2019-02-17T14:53:16.062Z,22.03
2019-02-17T14:55:45.060Z,22.50
2019-02-17T14:58:13.976Z,21.60
2019-02-17T15:00:42.850Z,20.23
2019-02-17T15:03:11.708Z,18.50
2019-02-17T15:05:40.886Z,18.43
2019-02-17T15:08:09.941Z,20.33
2019-02-17T15:10:38.881Z,19.10
2019-02-17T15:13:07.861Z,17.87
2019-02-17T15:15:38.203Z,20.67
2019-02-17T15:18:07.024Z,19.40
2019-02-17T15:20:35.987Z,21.47
2019-02-17T15:23:04.893Z,18.67
2019-02-17T15:25:33.938Z,19.93
2019-02-17T15:28:02.764Z,19.80
2019-02-17T15:30:31.764Z,18.73
2019-02-17T15:33:04.149Z,18.83
2019-02-17T15:35:32.600Z,16.40
2019-02-17T15:38:01.458Z,17.70
2019-02-17T15:40:30.323Z,15.03
2019-02-17T15:42:59.425Z,15.97
2019-02-17T15:45:28.236Z,18.10
2019-02-17T15:47:57.304Z,17.27
2019-02-17T15:50:26.148Z,14.40
2019-02-17T15:52:55.351Z,17.50
2019-02-17T15:55:24.166Z,16.57
2019-02-17T15:57:55.828Z,18.93
2019-02-17T16:00:24.592Z,18.27
2019-02-17T16:02:53.817Z,14.70
2019-02-17T16:05:22.655Z,17.87
2019-02-17T16:07:51.558Z,16.37
2019-02-17T16:10:20.600Z,16.37
2019-02-17T16:12:50.204Z,18.37
2019-02-17T16:15:19.203Z,17.90
2019-02-17T16:17:48.202Z,16.50
2019-02-17T16:20:17.675Z,15.77
2019-02-17T16:22:46.909Z,16.70
2019-02-17T16:25:22.248Z,16.17
2019-02-17T16:27:51.317Z,15.30
2019-02-17T16:30:22.944Z,14.27
2019-02-17T16:32:52.028Z,14.47
2019-02-17T16:35:21.147Z,8.10
2019-02-17T16:37:50.239Z,9.67
2019-02-17T16:40:20.613Z,13.43
2019-02-17T16:42:49.562Z,11.93
2019-02-17T16:45:18.969Z,15.67
2019-02-17T16:47:48.128Z,16.13
2019-02-17T16:50:18.382Z,16.57
2019-02-17T16:52:49.165Z,18.10
2019-02-17T16:55:18.060Z,20.03
2019-02-17T16:57:47.470Z,18.33
2019-02-17T17:00:21.983Z,21.80
2019-02-17T17:02:51.594Z,20.73
2019-02-17T17:05:21.272Z,19.57
2019-02-17T17:07:50.591Z,19.90
2019-02-17T17:10:19.949Z,24.53
2019-02-17T17:12:52.058Z,21.23
2019-02-17T17:15:21.131Z,25.80
2019-02-17T17:17:50.073Z,20.83
2019-02-17T17:20:19.168Z,23.50
2019-02-17T17:22:48.233Z,21.53
2019-02-17T17:25:17.245Z,23.17
2019-02-17T17:27:46.108Z,23.27
2019-02-17T17:30:15.095Z,22.50
2019-02-17T17:32:44.068Z,21.50
2019-02-17T17:35:13.583Z,21.43
2019-02-17T17:37:42.676Z,20.70
2019-02-17T17:40:11.769Z,20.37
2019-02-17T17:42:40.851Z,18.90
2019-02-17T17:45:11.426Z,18.87
2019-02-17T17:47:40.623Z,19.53
2019-02-17T17:50:10.766Z,20.37
2019-02-17T17:52:40.005Z,19.50
2019-02-17T17:55:09.478Z,23.23
2019-02-17T17:57:38.645Z,15.97
2019-02-17T18:00:08.476Z,20.57
2019-02-17T18:02:37.349Z,19.73
2019-02-17T18:05:09.131Z,18.37
2019-02-17T18:07:37.564Z,17.87
2019-02-17T18:10:07.064Z,23.03
2019-02-17T18:12:36.102Z,24.33
2019-02-17T18:15:05.285Z,22.07
2019-02-17T18:17:34.545Z,20.73
2019-02-17T18:20:03.848Z,18.97
2019-02-17T18:22:32.864Z,20.33
2019-02-17T18:25:02.135Z,20.00
2019-02-17T18:27:31.271Z,19.93
2019-02-17T18:30:00.351Z,24.50
2019-02-17T18:32:29.563Z,23.13
2019-02-17T18:34:58.833Z,19.33
2019-02-17T18:37:27.885Z,22.70
2019-02-17T18:39:56.976Z,24.33
2019-02-17T18:42:26.066Z,20.07
2019-02-17T18:44:55.119Z,25.27
2019-02-17T18:47:24.413Z,23.87
2019-02-17T18:49:53.527Z,23.53
2019-02-17T18:52:22.798Z,20.77
2019-02-17T18:54:51.983Z,23.90
2019-02-17T18:57:21.431Z,19.57
2019-02-17T18:59:50.413Z,22.97
2019-02-17T19:02:19.851Z,22.87
2019-02-17T19:04:48.973Z,23.27
2019-02-17T19:07:18.049Z,20.13
2019-02-17T19:09:47.164Z,21.77
2019-02-17T19:12:16.017Z,23.90
2019-02-17T19:14:45.395Z,22.97
2019-02-17T19:17:14.726Z,22.37
2019-02-17T19:19:44.155Z,20.20
2019-02-17T19:22:13.211Z,19.57
2019-02-17T19:24:42.187Z,20.63
2019-02-17T19:27:11.559Z,17.97
2019-02-17T19:29:40.894Z,19.40
2019-02-17T19:32:10.036Z,21.83
2019-02-17T19:34:39.877Z,24.27
2019-02-17T19:37:09.104Z,20.70
2019-02-17T19:39:38.087Z,21.10
2019-02-17T19:42:09.444Z,19.57
2019-02-17T19:44:38.600Z,19.43
2019-02-17T19:47:08.456Z,18.37
2019-02-17T19:49:38.010Z,20.03
2019-02-17T19:52:07.658Z,20.23
2019-02-17T19:54:36.938Z,19.33
2019-02-17T19:57:06.213Z,19.10
2019-02-17T19:59:35.666Z,17.87
2019-02-17T20:02:04.935Z,19.50
2019-02-17T20:04:38.407Z,16.57
2019-02-17T20:07:07.399Z,17.07
2019-02-17T20:09:36.669Z,15.47
2019-02-17T20:12:05.860Z,15.83
2019-02-17T20:14:34.957Z,17.03
2019-02-17T20:17:04.131Z,15.87
2019-02-17T20:19:35.162Z,17.37
2019-02-17T20:22:05.380Z,16.30
2019-02-17T20:24:35.430Z,16.30
2019-02-17T20:27:05.343Z,15.27
2019-02-17T20:29:34.688Z,14.90
2019-02-17T20:32:04.608Z,14.47
2019-02-17T20:34:33.528Z,16.23
2019-02-17T20:37:02.617Z,14.23
2019-02-17T20:39:31.656Z,15.70
2019-02-17T20:42:00.862Z,15.63
2019-02-17T20:44:30.533Z,16.27
2019-02-17T20:46:59.627Z,19.17
2019-02-17T20:49:29.849Z,15.73
2019-02-17T20:51:59.605Z,14.37
2019-02-17T20:54:28.688Z,13.67
2019-02-17T20:56:57.585Z,13.57
2019-02-17T20:59:26.964Z,13.90
2019-02-17T21:01:56.634Z,18.40
2019-02-17T21:04:26.642Z,13.73
2019-02-17T21:06:56.678Z,14.23
2019-02-17T21:09:26.386Z,15.73
2019-02-17T21:11:57.482Z,17.30
2019-02-17T21:14:26.946Z,14.33
2019-02-17T21:16:56.993Z,13.93
2019-02-17T21:19:27.123Z,16.00
2019-02-17T21:21:58.253Z,13.75
2019-02-17T21:24:29.416Z,17.37
2019-02-17T21:26:59.412Z,15.10
2019-02-17T21:29:28.922Z,13.43
2019-02-17T21:31:59.815Z,13.40
2019-02-17T21:34:29.060Z,16.90
2019-02-17T21:36:59.030Z,14.07
2019-02-17T21:39:28.835Z,14.70
2019-02-17T21:41:58.751Z,13.63
2019-02-17T21:44:28.057Z,15.43
2019-02-17T21:46:57.232Z,12.90
2019-02-17T21:49:26.818Z,15.00
2019-02-17T21:51:56.828Z,12.73
2019-02-17T21:54:25.998Z,16.30
2019-02-17T21:56:55.575Z,11.50
2019-02-17T21:59:24.835Z,15.33
2019-02-17T22:01:54.018Z,14.90
2019-02-17T22:04:23.235Z,15.70
2019-02-17T22:06:52.528Z,11.83
2019-02-17T22:09:21.418Z,13.50
2019-02-17T22:11:50.476Z,14.07
2019-02-17T22:14:19.824Z,11.97
2019-02-17T22:16:48.812Z,13.30
2019-02-17T22:19:18.418Z,14.43
2019-02-17T22:21:49.059Z,14.73
2019-02-17T22:24:18.331Z,15.60
2019-02-17T22:26:47.181Z,12.50
2019-02-17T22:29:16.006Z,14.23
2019-02-17T22:31:45.154Z,12.33
2019-02-17T22:34:14.228Z,15.33
2019-02-17T22:36:43.991Z,12.60
2019-02-17T22:39:13.122Z,14.23
2019-02-17T22:41:42.081Z,12.40
2019-02-17T22:44:10.939Z,17.43
2019-02-17T22:46:40.145Z,13.33
2019-02-17T22:49:08.967Z,14.80
2019-02-17T22:51:37.997Z,14.73
2019-02-17T22:54:06.944Z,11.83
2019-02-17T22:56:35.747Z,12.17
2019-02-17T22:59:04.574Z,12.70
2019-02-17T23:01:34.493Z,14.83
2019-02-17T23:04:03.386Z,14.23
2019-02-17T23:06:32.218Z,14.83
2019-02-17T23:09:01.547Z,13.30
2019-02-17T23:11:30.627Z,13.57
2019-02-17T23:14:00.238Z,13.73
2019-02-17T23:16:29.127Z,14.47
2019-02-17T23:18:58.079Z,13.17
2019-02-17T23:21:26.889Z,13.70
2019-02-17T23:23:55.689Z,13.70
2019-02-17T23:26:24.547Z,12.57
2019-02-17T23:28:53.496Z,12.13
2019-02-17T23:31:22.328Z,11.07
2019-02-17T23:33:51.668Z,12.83
2019-02-17T23:36:20.915Z,12.37
2019-02-17T23:38:50.028Z,12.37
2019-02-17T23:41:18.845Z,14.20
2019-02-17T23:43:47.718Z,12.70
2019-02-17T23:46:16.728Z,17.13
2019-02-17T23:48:45.671Z,13.87
2019-02-17T23:51:14.774Z,15.57
2019-02-17T23:53:43.613Z,14.50
2019-02-17T23:56:12.459Z,12.87
2019-02-17T23:58:41.359Z,15.63
